Time;durP1;ratioP1;P1;durP2;ratioP2;P2;SDS_P1;SDS_P2;PMS_P1;PMS_P2;Temp;Humidity;BMP_temperature;BMP_pressure;BME280_temperature;BME280_humidity;BME280_pressure;Samples;Min_cycle;Max_cycle;Signal;HPM_P1;HPM_P2
2022/09/30 00:03:43;;;;;;;2.85;2.10;;;;;;;18.38;62.77;95695.84;10508045;28;20056;-28
2022/09/30 00:08:43;;;;;;;4.77;2.17;;;;;;;18.37;62.69;95695.88;10519791;28;20042;-28
2022/09/30 00:13:47;;;;;;;3.63;2.37;;;;;;;18.39;62.64;95692.44;10514131;28;20338;-28
2022/09/30 00:18:48;;;;;;;3.65;2.25;;;;;;;18.41;62.52;95692.44;10510607;28;20074;-28
2022/09/30 00:23:49;;;;;;;3.50;2.00;;;;;;;18.50;62.81;95699.88;10515719;28;20040;-29
2022/09/30 00:28:52;;;;;;;3.95;2.42;;;;;;;18.55;62.19;95695.56;10511430;28;20039;-30
2022/09/30 00:34:07;;;;;;;2.92;2.10;;;;;;;18.56;61.90;95704.84;10513366;28;20086;-29
2022/09/30 00:39:11;;;;;;;2.80;2.08;;;;;;;18.49;62.42;95715.97;10514669;28;20032;-28
2022/09/30 00:44:52;;;;;;;2.15;1.73;;;;;;;18.47;62.40;95726.13;10519580;28;20230;-28
2022/09/30 00:49:55;;;;;;;2.30;1.90;;;;;;;18.44;62.40;95722.78;10511323;28;20094;-29
2022/09/30 00:55:00;;;;;;;3.00;1.70;;;;;;;18.46;62.30;95723.59;10512415;28;20081;-29
2022/09/30 01:00:00;;;;;;;2.58;1.90;;;;;;;18.43;62.44;95728.72;10513483;28;20040;-29
2022/09/30 01:05:01;;;;;;;3.25;2.25;;;;;;;18.40;62.58;95733.84;10510471;28;20050;-28
2022/09/30 01:10:02;;;;;;;2.50;1.88;;;;;;;18.36;62.59;95740.66;10514928;28;20046;-29
2022/09/30 01:15:03;;;;;;;3.25;2.10;;;;;;;18.44;62.42;95727.84;10513034;28;20036;-30
2022/09/30 01:20:20;;;;;;;2.88;2.05;;;;;;;18.41;62.45;95726.19;10510151;28;20066;-29
2022/09/30 01:25:36;;;;;;;2.47;1.98;;;;;;;18.50;62.16;95725.22;10507955;28;20040;-28
2022/09/30 01:31:06;;;;;;;4.38;2.03;;;;;;;18.54;62.30;95729.38;10510099;28;20040;-29
2022/09/30 01:36:22;;;;;;;2.00;1.63;;;;;;;18.53;62.12;95732.78;10515332;28;20047;-28
2022/09/30 01:41:43;;;;;;;3.27;1.83;;;;;;;18.46;62.19;95733.72;10515560;28;20035;-29
2022/09/30 01:46:53;;;;;;;2.47;2.05;;;;;;;18.49;62.22;95731.16;10511237;28;20044;-29
2022/09/30 01:52:09;;;;;;;3.45;1.88;;;;;;;18.43;62.47;95738.84;10510483;28;20135;-29
2022/09/30 01:57:34;;;;;;;2.90;1.70;;;;;;;18.40;62.21;95726.25;10508117;28;20611;-28
2022/09/30 02:03:10;;;;;;;4.88;1.50;;;;;;;18.42;62.41;95739.72;10496378;28;20048;-28
2022/09/30 02:08:19;;;;;;;2.50;1.60;;;;;;;18.43;62.40;95733.78;10469572;28;20135;-29
2022/09/30 02:13:28;;;;;;;3.65;1.55;;;;;;;18.39;62.54;95739.75;10517424;28;20048;-29
2022/09/30 02:18:41;;;;;;;2.45;1.45;;;;;;;18.43;62.48;95749.81;10509957;28;20518;-29
2022/09/30 02:23:44;;;;;;;3.05;1.98;;;;;;;18.41;62.33;95760.84;10514343;28;20493;-29
2022/09/30 02:28:50;;;;;;;2.95;1.77;;;;;;;18.52;62.03;95756.44;10511332;28;20078;-30
2022/09/30 02:34:17;;;;;;;3.63;1.73;;;;;;;18.53;62.10;95760.66;10516033;28;20030;-29
2022/09/30 02:39:32;;;;;;;3.47;1.67;;;;;;;18.53;62.01;95760.66;10506875;28;20448;-28
2022/09/30 02:44:34;;;;;;;1.63;1.42;;;;;;;18.45;62.22;95762.47;10523781;28;20040;-29
2022/09/30 02:49:41;;;;;;;3.08;2.13;;;;;;;18.47;62.05;95750.59;10520314;28;20039;-29
2022/09/30 02:54:58;;;;;;;1.58;1.40;;;;;;;18.40;61.93;95751.59;10518745;28;20033;-29
2022/09/30 02:59:58;;;;;;;;;;;;;;;18.44;62.26;95754.06;10531943;28;20047;-29
2022/09/30 03:04:59;;;;;;;2.70;1.60;;;;;;;18.39;62.31;95763.41;10544697;28;19924;-28
2022/09/30 03:10:00;;;;;;;4.25;1.30;;;;;;;18.40;62.28;95760.00;10533449;28;20296;-29
2022/09/30 03:15:21;;;;;;;2.13;1.20;;;;;;;18.45;62.11;95770.06;10537485;27;20439;-31
2022/09/30 03:20:35;;;;;;;3.00;1.35;;;;;;;18.44;62.20;95771.78;10540008;28;20289;-28
2022/09/30 03:25:58;;;;;;;3.60;1.20;;;;;;;18.44;62.04;95781.06;10535726;28;20035;-29
2022/09/30 03:31:18;;;;;;;2.95;1.15;;;;;;;18.52;62.04;95779.25;10518125;28;20037;-29
2022/09/30 03:37:01;;;;;;;2.38;1.63;;;;;;;18.55;61.91;95779.22;10516657;28;20035;-29
2022/09/30 03:42:13;;;;;;;2.47;1.50;;;;;;;18.50;61.47;95766.59;10512428;28;20060;-30
2022/09/30 03:47:16;;;;;;;2.03;1.30;;;;;;;18.47;62.06;95786.94;10524585;28;20500;-29
2022/09/30 03:52:17;;;;;;;2.33;1.48;;;;;;;18.46;62.06;95792.03;10537861;28;20028;-29
2022/09/30 03:57:18;;;;;;;2.35;1.33;;;;;;;18.44;62.26;95811.47;10512131;28;20506;-29
2022/09/30 04:02:18;;;;;;;1.87;1.30;;;;;;;18.45;62.04;95814.00;10510876;28;20038;-28
2022/09/30 04:07:19;;;;;;;3.47;1.37;;;;;;;18.45;62.09;95823.28;10514193;28;20283;-29
2022/09/30 04:12:20;;;;;;;3.95;1.52;;;;;;;18.43;62.24;95841.03;10511296;28;20036;-28
2022/09/30 04:17:20;;;;;;;1.93;1.27;;;;;;;18.48;61.79;95840.97;10512735;28;20480;-28
2022/09/30 04:22:21;;;;;;;5.55;2.10;;;;;;;18.49;61.95;95845.22;10522204;28;20033;-28
2022/09/30 04:27:22;;;;;;;1.87;1.33;;;;;;;18.49;62.08;95842.69;10517459;28;20037;-29
2022/09/30 04:32:24;;;;;;;3.08;1.25;;;;;;;18.55;61.43;95850.19;10513465;28;20032;-29
2022/09/30 04:37:24;;;;;;;1.63;1.30;;;;;;;18.55;61.69;95840.03;10508461;28;20040;-28
2022/09/30 04:42:25;;;;;;;1.43;1.23;;;;;;;18.53;61.29;95851.91;10515812;28;20028;-29
2022/09/30 04:47:25;;;;;;;2.90;1.30;;;;;;;18.31;60.35;95853.03;10513075;28;20054;-31
2022/09/30 04:52:26;;;;;;;3.53;1.20;;;;;;;18.18;59.82;95848.97;10512837;28;20024;-28
2022/09/30 04:57:26;;;;;;;2.53;1.33;;;;;;;18.30;60.11;95853.91;10509961;28;20032;-29
2022/09/30 05:02:26;;;;;;;3.03;1.50;;;;;;;18.36;60.51;95853.84;10511843;28;20043;-29
2022/09/30 05:07:29;;;;;;;2.53;1.07;;;;;;;18.44;60.85;95857.09;10509174;28;20040;-29
2022/09/30 05:12:31;;;;;;;3.53;1.30;;;;;;;18.46;60.95;95856.22;10509665;28;20561;-29
2022/09/30 05:17:32;;;;;;;2.47;1.08;;;;;;;18.44;61.21;95855.41;10511618;28;20078;-28
2022/09/30 05:22:33;;;;;;;2.72;1.52;;;;;;;18.44;61.55;95857.97;10516689;28;20074;-28
2022/09/30 05:27:33;;;;;;;3.42;1.20;;;;;;;18.41;61.14;95862.22;10514648;28;20036;-29
2022/09/30 05:32:33;;;;;;;1.70;1.00;;;;;;;18.46;61.15;95862.97;10511413;28;20039;-29
2022/09/30 05:37:34;;;;;;;3.88;1.42;;;;;;;18.54;60.81;95878.94;10515190;28;20807;-30
2022/09/30 05:42:35;;;;;;;1.83;1.00;;;;;;;18.51;60.57;95881.50;10504439;28;20028;-29
2022/09/30 05:47:36;;;;;;;5.45;1.00;;;;;;;18.48;60.79;95879.84;10515211;28;20527;-29
2022/09/30 05:52:36;;;;;;;3.97;1.40;;;;;;;18.48;61.08;95894.19;10508755;28;20032;-28
2022/09/30 05:57:36;;;;;;;5.47;1.40;;;;;;;18.42;61.01;95889.25;10507053;28;20043;-32
2022/09/30 06:02:37;;;;;;;3.90;1.20;;;;;;;18.41;61.11;95896.00;10507258;28;20036;-29
2022/09/30 06:07:38;;;;;;;4.07;1.55;;;;;;;18.41;61.13;95905.31;10507130;28;20286;-29
2022/09/30 06:12:38;;;;;;;2.95;1.08;;;;;;;18.40;61.08;95916.31;10514194;28;20048;-29
2022/09/30 06:17:41;;;;;;;3.13;1.10;;;;;;;18.36;61.21;95920.56;10508434;28;20092;-28
2022/09/30 06:22:42;;;;;;;4.80;1.90;;;;;;;18.39;61.11;95927.25;10513031;28;20041;-29
2022/09/30 06:27:44;;;;;;;1.92;0.80;;;;;;;18.37;61.25;95939.13;10508837;28;20050;-29
2022/09/30 06:32:45;;;;;;;1.70;1.10;;;;;;;18.36;61.32;95934.91;10508600;28;20381;-29
2022/09/30 06:37:50;;;;;;;5.20;1.23;;;;;;;18.48;61.11;95938.16;10511883;28;20032;-30
2022/09/30 06:42:50;;;;;;;1.83;1.15;;;;;;;18.48;60.87;95932.22;10516036;28;20382;-28
2022/09/30 06:47:56;;;;;;;5.53;1.77;;;;;;;18.47;60.92;95943.22;10510403;28;20767;-29
2022/09/30 06:53:01;;;;;;;2.58;1.17;;;;;;;18.42;61.06;95945.00;10508349;28;20035;-29
2022/09/30 06:58:01;;;;;;;3.05;1.10;;;;;;;18.36;61.27;95960.25;10506420;28;20032;-29
2022/09/30 07:03:04;;;;;;;3.03;1.67;;;;;;;18.33;61.25;95952.72;10507766;28;20036;-29
2022/09/30 07:08:04;;;;;;;1.85;0.90;;;;;;;18.35;61.65;95954.34;10507230;28;20033;-29
2022/09/30 07:13:05;;;;;;;1.10;0.90;;;;;;;18.34;61.40;95961.97;10509418;28;20028;-29
2022/09/30 07:18:06;;;;;;;0.80;0.60;;;;;;;18.34;61.68;95967.06;10508478;28;20510;-29
2022/09/30 07:23:08;;;;;;;1.98;0.98;;;;;;;18.34;61.32;95977.19;10521520;28;20028;-29
2022/09/30 07:28:08;;;;;;;1.75;1.00;;;;;;;18.34;61.41;95975.47;10516864;28;20036;-29
2022/09/30 07:33:15;;;;;;;1.37;1.10;;;;;;;18.34;61.39;95982.25;10515817;28;20054;-29
2022/09/30 07:38:17;;;;;;;1.67;1.27;;;;;;;18.37;61.13;95992.34;10518012;28;20454;-28
2022/09/30 07:43:17;;;;;;;2.50;1.45;;;;;;;18.44;61.00;96009.16;10523032;28;20036;-29
2022/09/30 07:48:41;;;;;;;0.75;0.63;;;;;;;18.46;60.79;96015.03;10517266;28;20075;-29
2022/09/30 07:53:42;;;;;;;1.80;0.90;;;;;;;18.39;61.10;96021.03;10524439;28;20039;-29
2022/09/30 07:58:44;;;;;;;1.38;0.80;;;;;;;18.37;61.13;96027.81;10520028;28;20052;-30
2022/09/30 08:03:44;;;;;;;1.10;0.75;;;;;;;18.28;61.67;96018.59;10507934;28;20034;-29
2022/09/30 08:08:45;;;;;;;2.38;1.20;;;;;;;18.34;61.29;96032.94;10517017;28;20415;-29
2022/09/30 08:13:54;;;;;;;1.25;0.90;;;;;;;18.32;61.20;96040.53;10513397;28;20415;-28
2022/09/30 08:18:56;;;;;;;1.13;0.80;;;;;;;18.38;60.92;96055.69;10519763;28;20118;-29
2022/09/30 08:23:57;;;;;;;1.10;0.70;;;;;;;18.38;61.16;96055.69;10510818;28;20058;-28
2022/09/30 08:28:57;;;;;;;2.63;0.80;;;;;;;18.38;61.03;96068.38;10512543;28;20089;-28
2022/09/30 08:33:58;;;;;;;0.63;0.63;;;;;;;18.40;61.02;96065.81;10515213;28;20392;-29
2022/09/30 08:38:59;;;;;;;0.90;0.70;;;;;;;18.38;61.15;96077.66;10517307;28;20043;-29
2022/09/30 08:44:15;;;;;;;2.03;0.80;;;;;;;18.42;61.12;96076.78;10519706;28;20063;-29
2022/09/30 08:49:36;;;;;;;1.07;0.63;;;;;;;18.44;60.98;96077.59;10513886;28;20415;-29
2022/09/30 08:54:42;;;;;;;1.30;0.60;;;;;;;18.45;60.97;96076.72;10513669;28;20055;-28
2022/09/30 08:59:51;;;;;;;0.90;0.85;;;;;;;18.40;61.10;96078.50;10511325;28;20066;-29
2022/09/30 09:04:51;;;;;;;1.10;0.80;;;;;;;18.18;60.60;96082.03;10507252;28;20044;-29
2022/09/30 09:10:06;;;;;;;1.40;0.95;;;;;;;18.29;60.93;96092.91;10514131;28;20439;-29
2022/09/30 09:15:34;;;;;;;2.35;0.95;;;;;;;18.26;61.05;96095.47;10513527;28;20169;-31
2022/09/30 09:20:54;;;;;;;0.85;0.85;;;;;;;18.27;61.10;96092.09;10510999;28;20536;-29
2022/09/30 09:25:54;;;;;;;2.35;1.27;;;;;;;18.28;60.90;96097.16;10505196;28;20113;-29
2022/09/30 09:30:58;;;;;;;1.27;0.70;;;;;;;18.28;61.31;96093.75;10509064;28;20029;-28
2022/09/30 09:36:04;;;;;;;1.77;1.13;;;;;;;18.25;61.36;96094.63;10515029;28;20066;-28
2022/09/30 09:41:32;;;;;;;1.95;1.00;;;;;;;18.24;61.45;96100.56;10509814;28;20037;-28
2022/09/30 09:46:54;;;;;;;1.73;0.98;;;;;;;18.36;60.92;96103.03;10514772;28;20079;-29
2022/09/30 09:52:12;;;;;;;2.13;1.00;;;;;;;18.40;60.97;96098.78;10508292;28;20499;-29
2022/09/30 09:57:23;;;;;;;0.77;0.75;;;;;;;18.35;60.93;96111.44;10509751;28;20117;-29
2022/09/30 10:02:30;;;;;;;1.25;0.95;;;;;;;18.32;61.17;96110.66;10515986;28;20032;-28
2022/09/30 10:07:32;;;;;;;1.08;0.75;;;;;;;18.27;61.32;96117.44;10509288;28;20058;-29
2022/09/30 10:12:33;;;;;;;0.88;0.70;;;;;;;18.23;61.58;96131.81;10507829;28;20020;-29
2022/09/30 10:17:36;;;;;;;1.67;0.95;;;;;;;18.25;61.41;96129.28;10508007;28;20024;-29
2022/09/30 10:22:37;;;;;;;2.80;1.13;;;;;;;18.28;61.34;96141.91;10514327;28;20037;-30
2022/09/30 10:27:47;;;;;;;1.80;0.98;;;;;;;18.31;61.28;96134.31;10510266;28;20040;-29
2022/09/30 10:32:48;;;;;;;2.05;1.35;;;;;;;18.32;61.23;96141.06;10508138;28;20024;-28
2022/09/30 10:37:53;;;;;;;2.33;1.15;;;;;;;18.32;61.26;96136.00;10511655;28;20043;-29
2022/09/30 10:42:54;;;;;;;4.35;1.20;;;;;;;18.30;61.32;96135.16;10501055;28;20033;-29
2022/09/30 10:47:56;;;;;;;2.60;1.10;;;;;;;18.36;61.29;96137.66;10514577;28;20059;-29
2022/09/30 10:52:59;;;;;;;2.50;1.13;;;;;;;18.27;61.21;96130.09;10508844;28;20603;-29
2022/09/30 10:58:21;;;;;;;1.85;1.02;;;;;;;18.39;60.99;96135.06;10514525;28;20731;-29
2022/09/30 11:03:51;;;;;;;4.07;1.20;;;;;;;18.37;61.16;96139.31;10518518;28;20031;-28
2022/09/30 11:08:59;;;;;;;2.10;1.08;;;;;;;18.36;61.15;96132.59;10488068;28;20127;-30
2022/09/30 11:14:09;;;;;;;1.83;0.93;;;;;;;18.40;61.03;96136.78;10533091;28;20504;-28
2022/09/30 11:19:47;;;;;;;2.85;1.13;;;;;;;18.47;60.66;96141.78;10508836;28;20039;-29
2022/09/30 11:24:51;;;;;;;2.97;1.42;;;;;;;18.46;60.75;96137.56;10515490;28;20032;-32
2022/09/30 11:30:02;;;;;;;3.92;1.40;;;;;;;18.45;61.08;96137.56;10508240;28;20033;-29
2022/09/30 11:35:08;;;;;;;7.95;1.70;;;;;;;18.43;61.02;96146.88;10521853;28;20081;-29
2022/09/30 11:40:35;;;;;;;4.63;1.70;;;;;;;18.44;61.03;96146.03;10518544;28;20487;-29
2022/09/30 11:46:01;;;;;;;4.82;2.10;;;;;;;18.47;61.33;96145.97;10512471;28;20427;-29
2022/09/30 11:51:22;;;;;;;4.20;1.70;;;;;;;18.48;61.06;96148.53;10507075;28;20051;-29
2022/09/30 11:56:35;;;;;;;4.03;1.90;;;;;;;18.51;61.32;96148.47;10513419;28;20043;-29
2022/09/30 12:01:42;;;;;;;5.70;1.65;;;;;;;18.52;61.17;96150.19;10518594;28;20041;-28
2022/09/30 12:06:58;;;;;;;2.08;1.40;;;;;;;18.51;61.16;96148.47;10507321;28;20032;-28
2022/09/30 12:12:07;;;;;;;4.63;2.20;;;;;;;18.49;61.48;96149.38;10507806;28;20036;-29
2022/09/30 12:17:20;;;;;;;3.65;1.50;;;;;;;18.50;61.46;96151.06;10513445;28;20058;-29
2022/09/30 12:22:32;;;;;;;5.07;2.00;;;;;;;18.47;61.36;96148.53;10517005;28;20045;-29
2022/09/30 12:27:41;;;;;;;4.00;1.60;;;;;;;18.43;60.67;96160.38;10518631;28;20043;-29
2022/09/30 12:32:57;;;;;;;7.03;1.90;;;;;;;18.41;61.66;96161.28;10511963;28;20519;-29
2022/09/30 12:38:15;;;;;;;8.65;1.70;;;;;;;18.40;60.41;96164.66;10514592;28;20077;-28
2022/09/30 12:43:48;;;;;;;4.60;1.48;;;;;;;18.40;61.45;96155.34;10519914;28;20036;-29
2022/09/30 12:48:59;;;;;;;4.63;1.70;;;;;;;18.39;61.52;96163.81;10519104;28;20042;-29
2022/09/30 12:54:39;;;;;;;6.78;1.95;;;;;;;18.42;61.32;96168.03;10511924;28;20093;-29
2022/09/30 12:59:51;;;;;;;5.63;1.98;;;;;;;18.48;61.20;96173.00;10511654;28;20060;-29
2022/09/30 13:04:51;;;;;;;4.95;1.70;;;;;;;18.45;60.84;96173.91;10510364;28;20046;-29
2022/09/30 13:09:55;;;;;;;5.20;1.50;;;;;;;18.47;61.06;96171.34;10516404;28;20123;-30
2022/09/30 13:15:36;;;;;;;3.60;1.42;;;;;;;18.41;61.49;96173.94;10511915;28;20369;-29
2022/09/30 13:21:05;;;;;;;2.75;1.33;;;;;;;18.41;61.46;96176.47;10483769;28;20123;-30
2022/09/30 13:26:21;;;;;;;6.15;1.60;;;;;;;18.39;61.54;96184.09;10511872;28;20040;-29
2022/09/30 13:31:23;;;;;;;4.15;1.88;;;;;;;18.11;59.70;96199.47;10509313;28;20507;-31
2022/09/30 13:36:26;;;;;;;6.13;1.77;;;;;;;18.16;60.17;96200.28;10511262;28;20115;-29
2022/09/30 13:41:27;;;;;;;5.95;1.77;;;;;;;18.20;60.59;96202.78;10515396;28;20107;-28
2022/09/30 13:46:48;;;;;;;5.53;1.67;;;;;;;18.23;60.56;96212.03;10515191;28;20127;-30
2022/09/30 13:51:48;;;;;;;12.70;2.17;;;;;;;18.29;60.85;96207.81;10508539;28;20036;-29
2022/09/30 13:56:50;;;;;;;9.85;2.35;;;;;;;18.35;60.85;96212.00;10515541;28;20335;-28
2022/09/30 14:02:32;;;;;;;10.45;2.40;;;;;;;18.41;60.74;96227.16;10511370;28;20549;-29
2022/09/30 14:07:45;;;;;;;9.50;1.85;;;;;;;18.46;60.89;96235.56;10509870;28;20036;-29
2022/09/30 14:13:07;;;;;;;8.48;1.73;;;;;;;18.46;60.90;96230.50;10508385;28;20128;-28
2022/09/30 14:18:31;;;;;;;14.85;4.18;;;;;;;18.49;60.72;96235.56;10502787;28;20036;-28
2022/09/30 14:23:31;;;;;;;28.98;3.05;;;;;;;18.49;60.77;96235.56;10510823;28;20148;-29
2022/09/30 14:28:51;;;;;;;20.80;3.87;;;;;;;18.48;60.96;96233.84;10506498;28;20040;-28
2022/09/30 14:33:52;;;;;;;20.95;3.13;;;;;;;18.48;60.96;96239.78;10508195;28;20282;-30
2022/09/30 14:38:58;;;;;;;11.50;3.03;;;;;;;18.49;60.82;96240.63;10507853;28;20551;-29
2022/09/30 14:44:04;;;;;;;13.17;2.53;;;;;;;18.40;61.13;96225.50;10514680;28;20298;-29
2022/09/30 14:49:08;;;;;;;;;;;;;;;18.43;61.12;96226.28;10512793;28;20036;-29
2022/09/30 14:54:18;;;;;;;9.43;2.55;;;;;;;18.44;61.02;96220.38;10508652;28;20433;-28
2022/09/30 14:59:25;;;;;;;11.95;3.40;;;;;;;18.44;61.03;96219.53;10507820;28;20059;-28
2022/09/30 15:04:31;;;;;;;13.40;2.88;;;;;;;18.49;61.00;96205.13;10502955;28;20131;-29
2022/09/30 15:09:43;;;;;;;9.30;2.47;;;;;;;18.51;60.99;96211.03;10510556;28;20106;-29
2022/09/30 15:14:54;;;;;;;8.85;2.13;;;;;;;18.52;60.93;96217.78;10495120;28;20040;-28
2022/09/30 15:19:56;;;;;;;12.60;3.03;;;;;;;18.49;61.90;96210.22;10508599;28;20043;-29
2022/09/30 15:24:58;;;;;;;15.73;3.28;;;;;;;18.48;61.41;96209.34;10501219;28;20111;-28
2022/09/30 15:30:21;;;;;;;11.27;2.45;;;;;;;18.43;61.30;96218.66;10508224;28;20085;-29
2022/09/30 15:35:22;;;;;;;11.75;3.08;;;;;;;18.45;61.48;96223.75;10511521;28;20040;-32
2022/09/30 15:45:44;;;;;;;12.00;3.95;;;;;;;18.47;61.93;96234.69;10523227;28;20321;-30
2022/09/30 15:50:47;;;;;;;10.27;2.78;;;;;;;18.50;62.34;96237.22;10517633;28;20435;-30
2022/09/30 15:55:55;;;;;;;10.98;2.47;;;;;;;18.49;62.47;96226.25;10507827;28;20024;-31
2022/09/30 16:01:08;;;;;;;13.68;3.97;;;;;;;18.52;62.01;96233.84;10516169;28;20067;-29
2022/09/30 16:06:12;;;;;;;7.88;2.50;;;;;;;18.52;61.93;96227.91;10509790;28;20442;-29
2022/09/30 16:11:28;;;;;;;11.77;2.90;;;;;;;18.48;62.01;96226.25;10517122;28;20032;-30
2022/09/30 16:16:30;;;;;;;6.20;2.07;;;;;;;18.38;60.60;96237.31;10513754;28;20044;-30
2022/09/30 16:21:46;;;;;;;8.35;2.20;;;;;;;18.36;60.20;96250.00;10518374;28;20043;-30
2022/09/30 16:26:50;;;;;;;11.68;2.38;;;;;;;18.34;59.73;96238.19;10513494;28;20093;-29
2022/09/30 16:31:53;;;;;;;4.10;2.42;;;;;;;18.35;59.51;96239.88;10517396;28;20058;-29
2022/09/30 16:37:16;;;;;;;9.27;1.90;;;;;;;18.36;59.69;96233.94;10512927;28;20120;-32
2022/09/30 16:42:18;;;;;;;4.30;2.28;;;;;;;18.32;59.82;96237.38;10513360;28;20070;-28
2022/09/30 16:47:19;;;;;;;5.97;2.15;;;;;;;18.30;60.65;96244.13;10513752;28;20596;-28
2022/09/30 16:52:20;;;;;;;4.43;1.98;;;;;;;18.32;61.19;96228.06;10511223;28;20027;-29
2022/09/30 16:57:20;;;;;;;7.37;2.10;;;;;;;18.23;61.19;96217.97;10511233;28;20032;-29
2022/09/30 17:02:21;;;;;;;5.37;2.10;;;;;;;18.38;61.24;96247.44;10513755;28;20468;-28
2022/09/30 17:07:21;;;;;;;5.50;1.90;;;;;;;18.33;61.47;96244.94;10512595;28;20316;-28
2022/09/30 17:12:22;;;;;;;4.80;1.77;;;;;;;18.36;61.26;96251.69;10509505;28;20028;-30
2022/09/30 17:17:22;;;;;;;6.30;1.65;;;;;;;18.38;61.98;96267.72;10511802;28;20079;-29
2022/09/30 17:22:23;;;;;;;3.95;1.85;;;;;;;18.39;61.89;96269.41;10517935;28;20032;-29
2022/09/30 17:27:23;;;;;;;7.90;3.50;;;;;;;18.39;61.54;96269.41;10511356;28;20081;-29
2022/09/30 17:32:24;;;;;;;5.57;1.73;;;;;;;18.38;61.64;96268.56;10510513;28;20049;-28
2022/09/30 17:37:26;;;;;;;4.40;1.73;;;;;;;18.38;61.39;96277.84;10513691;28;20027;-29
2022/09/30 17:47:45;;;;;;;4.93;1.67;;;;;;;18.38;61.64;96301.53;10512044;28;20032;-28
2022/09/30 17:52:46;;;;;;;7.13;2.90;;;;;;;18.37;61.67;96306.59;10509717;28;20077;-28
2022/09/30 17:57:46;;;;;;;6.07;1.88;;;;;;;18.34;61.88;96316.75;10508664;28;20058;-29
2022/09/30 18:02:47;;;;;;;2.53;1.47;;;;;;;18.37;62.25;96326.88;10507532;28;20040;-29
2022/09/30 18:07:47;;;;;;;1.95;1.00;;;;;;;18.41;62.21;96333.63;10511403;28;20028;-28
2022/09/30 18:12:48;;;;;;;3.33;1.37;;;;;;;18.40;62.20;96321.81;10509618;28;20034;-29
2022/09/30 18:17:48;;;;;;;2.42;1.40;;;;;;;18.36;61.93;96331.09;10508012;28;20278;-28
2022/09/30 18:22:49;;;;;;;1.92;1.00;;;;;;;18.35;62.05;96328.56;10514965;28;20112;-29
2022/09/30 18:27:59;;;;;;;3.67;1.30;;;;;;;18.37;62.10;96334.47;10510080;28;20606;-29
2022/09/30 18:33:00;;;;;;;5.13;1.60;;;;;;;18.39;61.59;96335.28;10504392;28;20032;-28
2022/09/30 18:38:01;;;;;;;5.25;1.70;;;;;;;18.43;61.98;96342.88;10506387;28;20036;-29
2022/09/30 18:43:04;;;;;;;5.68;1.50;;;;;;;18.40;62.12;96357.28;10498948;28;20041;-29
2022/09/30 18:48:06;;;;;;;4.35;1.45;;;;;;;18.40;62.93;96370.78;10509586;28;20562;-30
2022/09/30 18:53:07;;;;;;;5.97;1.45;;;;;;;18.44;63.21;96379.22;10497631;28;20033;-30
2022/09/30 18:58:08;;;;;;;6.53;1.77;;;;;;;18.50;62.54;96389.31;10498566;28;20028;-30
2022/09/30 19:03:12;;;;;;;4.43;1.40;;;;;;;18.44;62.61;96395.28;10502453;28;20032;-30
2022/09/30 19:08:13;;;;;;;4.75;1.35;;;;;;;18.41;63.03;96379.25;10506563;28;20032;-29
2022/09/30 19:13:13;;;;;;;5.00;1.47;;;;;;;18.41;62.78;96380.06;10504758;28;20484;-31
2022/09/30 19:18:13;;;;;;;3.13;1.77;;;;;;;18.44;63.08;96374.13;10511623;28;20289;-30
2022/09/30 19:23:14;;;;;;;3.90;1.53;;;;;;;18.43;63.31;96362.31;10513861;28;20090;-29
2022/09/30 19:28:15;;;;;;;4.38;1.20;;;;;;;18.40;63.18;96369.94;10514308;28;20797;-29
2022/09/30 19:33:15;;;;;;;1.08;0.88;;;;;;;18.41;62.86;96369.94;10515010;28;20021;-29
2022/09/30 19:38:15;;;;;;;2.90;1.10;;;;;;;18.44;63.35;96354.72;10511940;28;20032;-29
2022/09/30 19:43:18;;;;;;;3.33;1.33;;;;;;;18.46;63.00;96347.09;10524962;28;20298;-29
2022/09/30 19:48:19;;;;;;;3.42;1.38;;;;;;;18.43;63.19;96355.53;10516847;28;20480;-28
2022/09/30 19:53:19;;;;;;;6.43;1.60;;;;;;;18.37;62.95;96357.28;10514001;28;20085;-30
2022/09/30 19:58:20;;;;;;;10.50;2.40;;;;;;;18.40;63.10;96367.41;10519389;28;20060;-29
2022/09/30 20:03:21;;;;;;;6.80;1.27;;;;;;;18.40;63.16;96368.25;10512985;28;20050;-29
2022/09/30 20:08:21;;;;;;;4.82;1.30;;;;;;;18.32;62.16;96364.09;10514300;28;20032;-30
2022/09/30 20:13:22;;;;;;;9.77;1.10;;;;;;;18.40;62.98;96362.34;10510649;28;20028;-30
2022/09/30 20:18:22;;;;;;;4.65;1.20;;;;;;;18.43;63.38;96367.41;10512294;28;20124;-30
2022/09/30 20:23:23;;;;;;;6.55;1.85;;;;;;;18.43;63.45;96357.25;10544903;28;20051;-29
2022/09/30 20:28:24;;;;;;;4.65;1.30;;;;;;;18.44;62.85;96369.94;10502702;28;20054;-30
2022/09/30 20:33:24;;;;;;;4.57;1.53;;;;;;;18.41;62.96;96371.63;10513848;28;20029;-29
2022/09/30 20:38:25;;;;;;;3.92;1.10;;;;;;;18.37;62.87;96368.28;10507356;28;20295;-30
2022/09/30 20:43:29;;;;;;;5.20;1.83;;;;;;;18.28;62.93;96363.22;10515054;28;20044;-29
2022/09/30 20:48:30;;;;;;;2.85;1.15;;;;;;;18.34;62.99;96383.47;10507679;28;20043;-29
2022/09/30 20:53:31;;;;;;;3.72;1.30;;;;;;;18.34;62.98;96402.91;10513409;28;20698;-30
2022/09/30 20:58:31;;;;;;;2.03;1.20;;;;;;;18.31;63.00;96413.91;10507863;28;20042;-29
2022/09/30 21:03:34;;;;;;;5.75;1.50;;;;;;;18.36;62.72;96414.75;10503378;28;20028;-29
2022/09/30 21:08:37;;;;;;;5.47;1.25;;;;;;;18.43;63.14;96423.16;10524556;28;20037;-29
2022/09/30 21:13:45;;;;;;;1.77;1.13;;;;;;;18.44;62.74;96437.50;10514083;28;20079;-31
2022/09/30 21:18:48;;;;;;;2.58;0.88;;;;;;;18.40;62.89;96433.31;10511911;28;20121;-29
2022/09/30 21:23:56;;;;;;;4.30;1.20;;;;;;;18.35;62.82;96445.97;10510074;28;20123;-29
2022/09/30 21:28:56;;;;;;;1.98;1.02;;;;;;;18.31;62.70;96446.84;10510123;28;20036;-29
2022/09/30 21:33:58;;;;;;;5.38;1.35;;;;;;;18.33;62.98;96449.38;10512522;28;20040;-29
2022/09/30 21:39:01;;;;;;;1.45;0.80;;;;;;;18.33;62.91;96462.06;10505949;28;20033;-29
2022/09/30 21:44:03;;;;;;;3.03;0.93;;;;;;;18.31;62.78;96459.53;10500382;28;20032;-29
2022/09/30 21:49:06;;;;;;;2.67;0.93;;;;;;;18.33;63.12;96455.28;10513197;28;20115;-29
2022/09/30 21:54:08;;;;;;;3.05;0.98;;;;;;;18.40;63.29;96463.72;10512446;28;20024;-29
2022/09/30 21:59:10;;;;;;;2.75;1.27;;;;;;;18.39;63.19;96462.88;10512798;28;20032;-29
2022/09/30 22:04:10;;;;;;;3.80;1.10;;;;;;;18.36;62.73;96446.84;10502767;28;20128;-30
2022/09/30 22:09:11;;;;;;;4.13;1.23;;;;;;;18.32;63.16;96448.53;10512020;28;20428;-29
2022/09/30 22:14:12;;;;;;;3.72;1.23;;;;;;;18.33;62.97;96446.84;10509548;28;20386;-29
2022/09/30 22:19:13;;;;;;;3.80;1.00;;;;;;;18.29;62.64;96437.53;10508176;28;20658;-29
2022/09/30 22:24:13;;;;;;;5.68;0.90;;;;;;;18.30;62.83;96436.72;10512315;28;20101;-29
2022/09/30 22:29:15;;;;;;;1.87;1.20;;;;;;;18.30;62.84;96429.97;10508965;28;20082;-30
2022/09/30 22:39:35;;;;;;;3.15;1.00;;;;;;;18.36;63.08;96436.69;10512097;28;20040;-29
2022/09/30 22:44:36;;;;;;;2.30;1.10;;;;;;;18.38;63.00;96443.44;10517454;28;20032;-29
2022/09/30 22:49:37;;;;;;;1.42;0.73;;;;;;;18.34;62.99;96428.25;10516655;28;20475;-29
2022/09/30 22:54:37;;;;;;;2.55;0.80;;;;;;;18.33;62.89;96432.47;10518938;28;20036;-29
2022/09/30 22:59:37;;;;;;;1.80;0.70;;;;;;;18.31;62.76;96434.19;10516246;28;20028;-29
2022/09/30 23:04:38;;;;;;;6.00;0.70;;;;;;;18.31;62.64;96435.84;10516410;28;20039;-29
2022/09/30 23:09:38;;;;;;;1.63;0.87;;;;;;;18.30;62.77;96434.19;10517078;28;20043;-28
2022/09/30 23:14:38;;;;;;;1.90;0.73;;;;;;;18.29;62.78;96435.00;10517206;28;20080;-29
2022/09/30 23:19:39;;;;;;;4.03;1.00;;;;;;;18.28;63.00;96438.38;10512324;28;20035;-29
2022/09/30 23:24:39;;;;;;;3.30;1.10;;;;;;;18.29;63.10;96435.00;10517091;28;20043;-29
2022/09/30 23:29:40;;;;;;;1.95;0.88;;;;;;;18.38;63.16;96435.84;10515781;28;20041;-29
2022/09/30 23:34:40;;;;;;;3.87;1.60;;;;;;;18.35;62.95;96455.28;10522030;28;20070;-29
2022/09/30 23:39:40;;;;;;;1.77;0.80;;;;;;;18.33;62.92;96455.28;10515629;28;20464;-29
2022/09/30 23:44:41;;;;;;;1.00;0.60;;;;;;;18.31;63.10;96454.44;10522427;28;20548;-29
2022/09/30 23:49:42;;;;;;;1.40;0.87;;;;;;;18.21;62.85;96452.78;10513121;28;20282;-29
2022/09/30 23:54:42;;;;;;;1.85;0.90;;;;;;;18.26;63.13;96450.22;10515873;28;20684;-29
2022/09/30 23:59:43;;;;;;;4.20;3.08;;;;;;;18.28;62.73;96463.72;10514475;28;20383;-28
